createdAt,value
2019-03-04T00:02:18.880Z,60.96
2019-03-04T00:04:47.751Z,60.99
2019-03-04T00:07:16.729Z,60.95
2019-03-04T00:09:45.988Z,60.94
2019-03-04T00:12:14.988Z,60.94
2019-03-04T00:14:43.994Z,60.95
2019-03-04T00:17:12.906Z,60.92
2019-03-04T00:19:41.824Z,60.92
2019-03-04T00:22:10.912Z,60.90
2019-03-04T00:24:39.734Z,60.90
2019-03-04T00:27:08.746Z,60.93
2019-03-04T00:29:37.938Z,60.92
2019-03-04T00:32:07.213Z,60.87
2019-03-04T00:34:36.247Z,60.83
2019-03-04T00:37:05.227Z,60.85
2019-03-04T00:39:34.199Z,60.89
2019-03-04T00:42:03.219Z,60.95
2019-03-04T00:44:32.155Z,60.94
2019-03-04T00:47:02.061Z,60.97
2019-03-04T00:49:31.985Z,60.97
2019-03-04T00:52:01.512Z,61.06
2019-03-04T00:54:30.444Z,61.10
2019-03-04T00:56:59.317Z,61.06
2019-03-04T00:59:28.310Z,61.04
2019-03-04T01:01:57.259Z,61.01
2019-03-04T01:04:26.283Z,60.95
2019-03-04T01:06:55.290Z,60.97
2019-03-04T01:09:24.303Z,60.94
2019-03-04T01:11:53.339Z,60.89
2019-03-04T01:14:22.311Z,60.91
2019-03-04T01:16:51.420Z,60.98
2019-03-04T01:19:20.298Z,60.90
2019-03-04T01:21:49.301Z,60.90
2019-03-04T01:24:18.249Z,60.88
2019-03-04T01:26:47.066Z,60.79
2019-03-04T01:29:15.970Z,60.76
2019-03-04T01:31:44.976Z,60.76
2019-03-04T01:34:13.950Z,60.71
2019-03-04T01:36:42.966Z,60.68
2019-03-04T01:39:11.833Z,60.71
2019-03-04T01:41:40.868Z,60.69
2019-03-04T01:44:09.780Z,60.70
2019-03-04T01:46:38.734Z,60.70
2019-03-04T01:49:07.576Z,60.66
2019-03-04T01:51:36.568Z,60.64
2019-03-04T01:54:05.600Z,60.69
2019-03-04T01:56:34.665Z,60.67
2019-03-04T01:59:03.655Z,60.64
2019-03-04T02:01:32.632Z,60.64
2019-03-04T02:04:02.461Z,60.63
2019-03-04T02:06:31.503Z,60.62
2019-03-04T02:09:00.634Z,60.62
2019-03-04T02:11:29.635Z,60.64
2019-03-04T02:13:58.617Z,60.63
2019-03-04T02:16:27.674Z,60.60
2019-03-04T02:18:56.711Z,60.59
2019-03-04T02:21:25.724Z,60.59
2019-03-04T02:23:54.597Z,60.56
2019-03-04T02:26:28.991Z,60.56
2019-03-04T02:28:57.821Z,60.55
2019-03-04T02:31:26.690Z,60.58
2019-03-04T02:33:55.662Z,60.58
2019-03-04T02:36:24.541Z,60.56
2019-03-04T02:38:53.681Z,60.56
2019-03-04T02:41:22.461Z,60.55
2019-03-04T02:43:51.335Z,60.56
2019-03-04T02:46:20.289Z,60.54
2019-03-04T02:48:49.376Z,60.56
2019-03-04T02:51:18.272Z,60.54
2019-03-04T02:53:47.178Z,60.53
2019-03-04T02:56:36.901Z,60.53
2019-03-04T02:59:05.733Z,60.54
2019-03-04T03:01:34.831Z,60.55
2019-03-04T03:04:03.900Z,60.55
2019-03-04T03:06:32.950Z,60.56
2019-03-04T03:09:01.913Z,60.56
2019-03-04T03:11:30.990Z,60.60
2019-03-04T03:13:59.971Z,60.61
2019-03-04T03:16:28.996Z,60.59
2019-03-04T03:18:57.961Z,60.59
2019-03-04T03:21:26.975Z,60.58
2019-03-04T03:23:59.024Z,60.58
2019-03-04T03:26:26.875Z,60.56
2019-03-04T03:28:55.800Z,60.59
2019-03-04T03:31:25.275Z,60.59
2019-03-04T03:33:54.102Z,60.62
2019-03-04T03:36:23.085Z,60.60
2019-03-04T03:38:52.020Z,60.57
2019-03-04T03:41:21.065Z,60.55
2019-03-04T03:43:50.174Z,60.53
2019-03-04T03:46:19.109Z,60.52
2019-03-04T03:48:48.145Z,60.54
2019-03-04T03:51:17.193Z,60.55
2019-03-04T03:53:46.173Z,60.58
2019-03-04T03:56:15.162Z,60.59
2019-03-04T03:58:44.171Z,60.58
2019-03-04T04:01:13.255Z,60.60
2019-03-04T04:03:42.224Z,60.59
2019-03-04T04:06:11.250Z,60.59
2019-03-04T04:08:40.226Z,60.62
2019-03-04T04:11:09.248Z,60.66
2019-03-04T04:13:38.354Z,60.63
2019-03-04T04:16:07.292Z,60.63
2019-03-04T04:18:36.335Z,60.61
2019-03-04T04:21:05.316Z,60.61
2019-03-04T04:23:34.317Z,60.61
2019-03-04T04:26:04.817Z,60.60
2019-03-04T04:28:34.038Z,60.59
2019-03-04T04:31:03.269Z,60.58
2019-03-04T04:33:32.386Z,60.58
2019-03-04T04:36:01.405Z,60.60
2019-03-04T04:38:30.416Z,60.60
2019-03-04T04:40:59.449Z,60.58
2019-03-04T04:43:28.476Z,60.63
2019-03-04T04:45:57.413Z,60.59
2019-03-04T04:48:26.460Z,60.62
2019-03-04T04:53:43.390Z,60.63
2019-03-04T04:56:12.520Z,60.63
2019-03-04T04:58:41.508Z,60.67
2019-03-04T05:01:10.391Z,60.64
2019-03-04T05:03:39.422Z,60.61
2019-03-04T05:06:08.329Z,60.62
2019-03-04T05:08:37.394Z,60.62
2019-03-04T05:11:06.263Z,60.58
2019-03-04T05:13:35.275Z,60.63
2019-03-04T05:16:04.281Z,60.64
2019-03-04T05:18:33.546Z,60.76
2019-03-04T05:21:02.395Z,60.66
2019-03-04T05:23:31.720Z,60.61
2019-03-04T05:26:00.637Z,60.78
2019-03-04T05:28:29.675Z,60.68
2019-03-04T05:30:58.660Z,60.63
2019-03-04T05:33:27.608Z,60.63
2019-03-04T05:35:56.715Z,60.63
2019-03-04T05:38:25.679Z,60.57
2019-03-04T05:40:54.719Z,60.49
2019-03-04T05:43:23.731Z,60.46
2019-03-04T05:45:52.806Z,60.40
2019-03-04T05:48:21.835Z,60.34
2019-03-04T05:50:50.809Z,60.33
2019-03-04T05:53:19.816Z,60.30
2019-03-04T05:55:48.833Z,60.27
2019-03-04T05:58:17.893Z,60.20
2019-03-04T06:00:46.985Z,60.16
2019-03-04T06:03:17.393Z,60.10
2019-03-04T06:05:45.584Z,60.02
2019-03-04T06:08:14.470Z,59.98
2019-03-04T06:10:43.415Z,59.98
2019-03-04T06:13:14.324Z,59.91
2019-03-04T06:15:43.165Z,59.84
2019-03-04T06:18:12.034Z,59.79
2019-03-04T06:20:40.933Z,59.78
2019-03-04T06:23:09.994Z,59.72
2019-03-04T06:25:38.900Z,59.69
2019-03-04T06:28:07.824Z,59.68
2019-03-04T06:30:36.695Z,59.67
2019-03-04T06:33:05.963Z,59.62
2019-03-04T06:35:34.949Z,59.59
2019-03-04T06:38:04.096Z,59.58
2019-03-04T06:40:33.069Z,59.58
2019-03-04T06:43:02.153Z,59.50
2019-03-04T06:45:31.966Z,59.43
2019-03-04T06:48:00.988Z,59.34
2019-03-04T06:50:50.051Z,59.35
2019-03-04T06:53:41.493Z,59.33
2019-03-04T06:56:30.076Z,59.32
2019-03-04T06:59:09.405Z,59.38
2019-03-04T07:01:42.897Z,59.35
2019-03-04T07:04:26.328Z,59.36
2019-03-04T07:06:55.259Z,59.40
2019-03-04T07:09:24.632Z,59.32
2019-03-04T07:11:54.457Z,59.18
2019-03-04T07:14:23.295Z,59.28
2019-03-04T07:16:53.153Z,59.34
2019-03-04T07:19:23.572Z,59.08
2019-03-04T07:21:51.667Z,59.18
2019-03-04T07:24:20.525Z,59.13
2019-03-04T07:26:49.527Z,58.96
2019-03-04T07:29:18.330Z,58.95
2019-03-04T07:31:47.296Z,58.92
2019-03-04T07:34:16.371Z,59.03
2019-03-04T07:36:45.576Z,59.03
2019-03-04T07:39:16.047Z,59.06
2019-03-04T07:41:45.012Z,58.93
2019-03-04T07:44:13.906Z,58.84
2019-03-04T07:46:42.778Z,58.83
2019-03-04T07:49:11.776Z,58.86
2019-03-04T07:51:40.787Z,58.79
2019-03-04T07:54:09.818Z,58.88
2019-03-04T07:56:38.843Z,58.94
2019-03-04T07:59:07.684Z,59.04
2019-03-04T08:01:36.527Z,59.04
2019-03-04T08:04:05.406Z,59.09
2019-03-04T08:06:34.188Z,59.10
2019-03-04T08:09:56.648Z,59.13
2019-03-04T08:13:12.815Z,59.13
2019-03-04T08:16:02.507Z,59.23
2019-03-04T08:18:31.787Z,59.24
2019-03-04T08:21:00.721Z,59.13
2019-03-04T08:23:29.576Z,59.24
2019-03-04T08:25:58.631Z,59.17
2019-03-04T08:28:27.632Z,59.25
2019-03-04T08:30:56.613Z,60.25
2019-03-04T08:33:25.607Z,60.49
2019-03-04T08:35:54.622Z,60.72
2019-03-04T08:38:23.681Z,60.43
2019-03-04T08:40:52.636Z,60.81
2019-03-04T08:43:21.648Z,60.72
2019-03-04T08:45:50.694Z,60.59
2019-03-04T08:48:19.656Z,60.75
2019-03-04T08:50:48.702Z,61.01
2019-03-04T08:53:19.969Z,61.28
2019-03-04T08:55:48.824Z,61.08
2019-03-04T08:58:17.713Z,61.03
2019-03-04T09:00:46.738Z,60.99
2019-03-04T09:03:15.741Z,60.81
2019-03-04T09:05:44.684Z,61.07
2019-03-04T09:08:13.780Z,61.09
2019-03-04T09:10:42.813Z,60.99
2019-03-04T09:13:11.788Z,60.87
2019-03-04T09:15:40.801Z,60.66
2019-03-04T09:18:09.881Z,60.80
2019-03-04T09:20:38.871Z,60.93
2019-03-04T09:23:07.773Z,60.67
2019-03-04T09:25:45.818Z,60.62
2019-03-04T09:28:14.666Z,60.76
2019-03-04T09:30:43.909Z,60.80
2019-03-04T09:33:12.900Z,60.43
2019-03-04T09:35:41.983Z,60.55
2019-03-04T09:38:10.922Z,60.59
2019-03-04T09:40:39.858Z,60.26
2019-03-04T09:43:08.977Z,60.00
2019-03-04T09:45:39.385Z,60.13
2019-03-04T09:48:08.424Z,59.50
2019-03-04T09:50:37.453Z,59.66
2019-03-04T09:53:06.424Z,59.77
2019-03-04T09:55:35.449Z,59.76
2019-03-04T09:58:04.580Z,59.13
2019-03-04T10:00:36.442Z,58.75
2019-03-04T10:03:27.582Z,58.94
2019-03-04T10:06:32.478Z,59.13
2019-03-04T10:09:32.302Z,58.02
2019-03-04T10:12:15.986Z,58.35
2019-03-04T10:15:09.125Z,58.81
2019-03-04T10:17:53.150Z,58.68
2019-03-04T10:20:38.051Z,58.32
2019-03-04T10:23:31.200Z,57.74
2019-03-04T10:26:21.918Z,58.62
2019-03-04T10:29:21.408Z,58.37
2019-03-04T10:32:39.437Z,58.35
2019-03-04T10:35:34.318Z,58.06
2019-03-04T10:38:42.974Z,57.44
2019-03-04T10:42:03.750Z,57.62
2019-03-04T10:44:50.300Z,57.65
2019-03-04T10:47:19.225Z,57.38
2019-03-04T10:49:48.231Z,57.30
2019-03-04T10:52:17.308Z,57.37
2019-03-04T10:54:46.292Z,57.30
2019-03-04T10:57:15.314Z,57.09
2019-03-04T10:59:44.297Z,56.62
2019-03-04T11:02:13.329Z,56.74
2019-03-04T11:04:42.561Z,56.95
2019-03-04T11:07:11.461Z,57.00
2019-03-04T11:09:40.395Z,56.83
2019-03-04T11:12:09.458Z,56.62
2019-03-04T11:14:38.382Z,56.51
2019-03-04T11:17:07.404Z,56.60
2019-03-04T11:19:36.434Z,56.68
2019-03-04T11:22:05.404Z,56.63
2019-03-04T11:24:34.333Z,56.41
2019-03-04T11:27:03.210Z,56.69
2019-03-04T11:29:32.255Z,56.70
2019-03-04T11:32:01.355Z,56.93
2019-03-04T11:34:30.271Z,56.92
2019-03-04T11:36:59.502Z,56.85
2019-03-04T11:39:47.635Z,56.80
2019-03-04T11:42:16.587Z,56.76
2019-03-04T11:44:45.470Z,56.92
2019-03-04T11:47:14.357Z,52.92
2019-03-04T11:49:43.388Z,53.81
2019-03-04T11:52:12.463Z,52.91
2019-03-04T11:54:41.628Z,54.50
2019-03-04T11:57:11.516Z,54.98
2019-03-04T11:59:43.307Z,55.57
2019-03-04T12:02:18.708Z,56.25
2019-03-04T12:04:47.720Z,56.38
2019-03-04T12:07:16.876Z,56.78
2019-03-04T12:09:48.737Z,56.78
2019-03-04T12:12:17.746Z,56.83
2019-03-04T12:14:46.637Z,56.82
2019-03-04T12:17:17.201Z,56.65
2019-03-04T12:19:46.129Z,56.87
2019-03-04T12:22:35.752Z,56.56
2019-03-04T12:25:05.640Z,56.43
2019-03-04T12:27:34.510Z,56.61
2019-03-04T12:30:04.063Z,56.35
2019-03-04T12:32:34.738Z,56.86
2019-03-04T12:35:05.714Z,56.76
2019-03-04T12:37:34.927Z,56.83
2019-03-04T12:40:04.125Z,57.01
2019-03-04T12:42:33.045Z,57.25
2019-03-04T12:45:01.942Z,57.11
2019-03-04T12:47:30.932Z,57.37
2019-03-04T12:49:59.866Z,57.28
2019-03-04T12:52:28.919Z,57.32
2019-03-04T12:54:57.802Z,57.57
2019-03-04T12:57:26.757Z,57.72
2019-03-04T12:59:55.719Z,57.42
2019-03-04T13:02:24.702Z,57.42
2019-03-04T13:04:53.734Z,57.55
2019-03-04T13:07:22.729Z,57.55
2019-03-04T13:09:51.985Z,57.76
2019-03-04T13:12:20.954Z,57.87
2019-03-04T13:14:49.890Z,57.71
2019-03-04T13:17:18.765Z,57.69
2019-03-04T13:19:47.697Z,57.70
2019-03-04T13:22:16.849Z,57.75
2019-03-04T13:24:45.717Z,57.80
2019-03-04T13:27:23.466Z,57.75
2019-03-04T13:29:45.477Z,57.65
2019-03-04T13:32:14.394Z,57.55
2019-03-04T13:34:43.454Z,57.39
2019-03-04T13:37:12.432Z,57.31
2019-03-04T13:39:41.464Z,57.18
2019-03-04T13:42:10.593Z,57.14
2019-03-04T13:44:39.605Z,56.98
2019-03-04T13:47:08.579Z,56.84
2019-03-04T13:49:37.623Z,56.77
2019-03-04T13:52:06.687Z,56.80
2019-03-04T13:54:35.611Z,56.66
2019-03-04T13:57:06.413Z,56.42
2019-03-04T13:59:35.274Z,56.34
2019-03-04T14:02:05.505Z,56.16
2019-03-04T14:04:34.296Z,56.03
2019-03-04T14:07:03.475Z,55.90
2019-03-04T14:09:32.337Z,55.89
2019-03-04T14:12:01.275Z,55.90
2019-03-04T14:14:30.189Z,55.92
2019-03-04T14:16:59.058Z,55.92
2019-03-04T14:19:28.069Z,55.77
2019-03-04T14:21:57.319Z,55.75
2019-03-04T14:24:26.226Z,55.69
2019-03-04T14:26:55.033Z,55.67
2019-03-04T14:29:23.906Z,55.65
2019-03-04T14:31:52.853Z,55.61
2019-03-04T14:34:21.841Z,55.54
2019-03-04T14:36:50.885Z,55.52
2019-03-04T14:39:19.865Z,55.51
2019-03-04T14:41:48.891Z,55.54
2019-03-04T14:44:17.953Z,55.54
2019-03-04T14:46:46.950Z,55.50
2019-03-04T14:49:15.949Z,55.49
2019-03-04T14:51:44.948Z,55.48
2019-03-04T14:54:13.910Z,55.47
2019-03-04T14:56:42.937Z,55.45
2019-03-04T14:59:11.862Z,55.42
2019-03-04T15:01:40.855Z,55.40
2019-03-04T15:04:09.731Z,55.32
2019-03-04T15:06:38.541Z,55.32
2019-03-04T15:09:10.431Z,55.25
2019-03-04T15:11:39.232Z,55.04
2019-03-04T15:14:08.473Z,55.04
2019-03-04T15:16:37.275Z,55.08
2019-03-04T15:19:06.621Z,55.04
2019-03-04T15:21:35.661Z,55.03
2019-03-04T15:24:04.633Z,54.99
2019-03-04T15:26:41.016Z,54.81
2019-03-04T15:29:04.702Z,54.74
2019-03-04T15:31:33.649Z,54.69
2019-03-04T15:34:02.763Z,54.69
2019-03-04T15:36:31.675Z,54.71
2019-03-04T15:39:00.720Z,54.67
2019-03-04T15:41:29.684Z,54.67
2019-03-04T15:43:58.690Z,54.65
2019-03-04T15:49:15.686Z,54.72
2019-03-04T15:51:44.705Z,54.81
2019-03-04T15:54:13.697Z,54.62
2019-03-04T15:56:42.765Z,54.71
2019-03-04T15:59:11.604Z,54.78
2019-03-04T16:01:40.423Z,54.73
2019-03-04T16:04:09.672Z,54.71
2019-03-04T16:06:38.906Z,54.65
2019-03-04T16:09:14.289Z,54.60
2019-03-04T16:11:43.297Z,54.51
2019-03-04T16:14:12.496Z,54.56
2019-03-04T16:16:41.521Z,54.61
2019-03-04T16:19:10.598Z,54.65
2019-03-04T16:21:39.717Z,54.48
2019-03-04T16:24:08.897Z,54.55
2019-03-04T16:26:37.908Z,54.60
2019-03-04T16:29:06.869Z,54.52
2019-03-04T16:31:54.998Z,54.38
2019-03-04T16:34:23.956Z,54.42
2019-03-04T16:36:52.931Z,54.44
2019-03-04T16:39:22.029Z,54.46
2019-03-04T16:41:51.054Z,54.45
2019-03-04T16:44:19.884Z,54.43
2019-03-04T16:46:49.101Z,54.47
2019-03-04T16:49:18.002Z,54.50
2019-03-04T16:51:52.975Z,54.47
2019-03-04T16:54:22.141Z,54.40
2019-03-04T16:56:51.006Z,54.43
2019-03-04T16:59:19.985Z,54.41
2019-03-04T17:01:49.002Z,54.39
2019-03-04T17:04:17.941Z,54.23
2019-03-04T17:06:47.042Z,54.24
2019-03-04T17:09:18.083Z,54.10
2019-03-04T17:11:47.116Z,54.01
2019-03-04T17:14:16.044Z,53.99
2019-03-04T17:16:44.993Z,53.98
2019-03-04T17:19:13.790Z,53.99
2019-03-04T17:21:42.793Z,53.98
2019-03-04T17:24:11.699Z,53.95
2019-03-04T17:26:41.090Z,53.96
2019-03-04T17:29:10.072Z,53.92
2019-03-04T17:31:38.858Z,53.92
2019-03-04T17:34:08.060Z,53.89
2019-03-04T17:36:36.892Z,53.80
2019-03-04T17:39:06.907Z,53.83
2019-03-04T17:41:36.264Z,53.79
2019-03-04T17:44:06.739Z,53.86
2019-03-04T17:46:35.689Z,53.90
2019-03-04T17:49:05.041Z,53.93
2019-03-04T17:51:34.285Z,53.90
2019-03-04T17:54:03.343Z,53.77
2019-03-04T17:56:32.322Z,53.68
2019-03-04T17:59:01.349Z,53.66
2019-03-04T18:01:30.322Z,53.65
2019-03-04T18:03:59.331Z,53.75
2019-03-04T18:06:28.330Z,53.71
2019-03-04T18:08:57.257Z,53.63
2019-03-04T18:11:26.147Z,53.50
2019-03-04T18:13:55.068Z,53.50
2019-03-04T18:16:23.949Z,53.51
2019-03-04T18:18:53.104Z,53.51
2019-03-04T18:21:22.174Z,53.55
2019-03-04T18:23:51.218Z,53.51
2019-03-04T18:26:23.914Z,53.55
2019-03-04T18:29:37.141Z,53.78
2019-03-04T18:32:28.378Z,53.86
2019-03-04T18:35:24.459Z,53.70
2019-03-04T18:38:04.515Z,53.70
2019-03-04T18:41:09.665Z,53.77
2019-03-04T18:44:07.954Z,53.87
2019-03-04T18:46:53.036Z,53.87
2019-03-04T18:49:22.034Z,53.81
2019-03-04T18:51:51.067Z,53.89
2019-03-04T18:54:20.679Z,53.80
2019-03-04T18:56:49.669Z,53.79
2019-03-04T18:59:18.657Z,53.84
2019-03-04T19:01:47.684Z,53.77
2019-03-04T19:04:16.543Z,53.73
2019-03-04T19:06:45.432Z,53.78
2019-03-04T19:09:14.519Z,53.75
2019-03-04T19:11:43.624Z,53.69
2019-03-04T19:14:12.673Z,53.78
2019-03-04T19:16:41.665Z,53.77
2019-03-04T19:19:10.712Z,53.65
2019-03-04T19:21:39.742Z,53.61
2019-03-04T19:24:08.690Z,53.61
2019-03-04T19:26:37.942Z,53.53
2019-03-04T19:29:06.769Z,53.45
2019-03-04T19:31:35.722Z,53.46
2019-03-04T19:34:04.899Z,53.41
2019-03-04T19:36:33.904Z,53.44
2019-03-04T19:39:04.767Z,53.44
2019-03-04T19:41:33.855Z,53.38
2019-03-04T19:44:03.506Z,53.33
2019-03-04T19:46:32.397Z,53.28
2019-03-04T19:49:01.371Z,53.30
2019-03-04T19:51:30.356Z,53.34
2019-03-04T19:53:59.344Z,53.31
2019-03-04T19:56:28.297Z,53.27
2019-03-04T19:58:57.328Z,53.30
2019-03-04T20:01:26.456Z,53.27
2019-03-04T20:03:55.470Z,53.22
2019-03-04T20:06:24.429Z,53.29
2019-03-04T20:08:53.450Z,53.27
2019-03-04T20:11:22.424Z,53.28
2019-03-04T20:13:51.455Z,53.32
2019-03-04T20:16:41.055Z,53.29
2019-03-04T20:19:10.102Z,53.31
2019-03-04T20:21:39.082Z,53.28
2019-03-04T20:24:08.113Z,53.28
2019-03-04T20:26:37.090Z,53.23
2019-03-04T20:29:06.065Z,53.28
2019-03-04T20:31:35.953Z,53.31
2019-03-04T20:34:24.125Z,53.34
2019-03-04T20:36:53.044Z,53.36
2019-03-04T20:39:41.156Z,53.33
2019-03-04T20:42:10.144Z,53.35
2019-03-04T20:44:39.144Z,53.42
2019-03-04T20:47:08.118Z,53.44
2019-03-04T20:49:37.191Z,53.50
2019-03-04T20:52:06.161Z,53.45
2019-03-04T20:54:36.058Z,53.37
2019-03-04T20:57:04.897Z,53.27
2019-03-04T20:59:54.494Z,53.48
2019-03-04T21:02:23.324Z,53.47
2019-03-04T21:04:52.325Z,53.54
2019-03-04T21:07:21.253Z,53.50
2019-03-04T21:09:50.262Z,53.41
2019-03-04T21:12:19.335Z,53.35
2019-03-04T21:14:48.444Z,53.51
2019-03-04T21:17:17.390Z,53.46
2019-03-04T21:19:46.277Z,53.27
2019-03-04T21:22:15.308Z,53.44
2019-03-04T21:24:44.353Z,53.40
2019-03-04T21:27:13.288Z,53.36
2019-03-04T21:30:23.181Z,53.43
2019-03-04T21:33:32.090Z,53.52
2019-03-04T21:36:58.214Z,53.63
2019-03-04T21:39:31.692Z,53.67
2019-03-04T21:42:37.652Z,53.64
2019-03-04T21:45:41.513Z,53.65
2019-03-04T21:48:17.692Z,53.72
2019-03-04T21:50:57.452Z,53.72
2019-03-04T21:53:31.599Z,53.71
2019-03-04T21:56:29.730Z,53.83
2019-03-04T21:58:58.653Z,53.79
2019-03-04T22:01:31.559Z,53.71
2019-03-04T22:04:01.004Z,53.73
2019-03-04T22:06:29.942Z,53.73
2019-03-04T22:08:58.969Z,53.82
2019-03-04T22:11:27.812Z,53.72
2019-03-04T22:13:56.719Z,53.76
2019-03-04T22:16:25.712Z,53.63
2019-03-04T22:18:54.662Z,53.73
2019-03-04T22:21:23.557Z,54.00
2019-03-04T22:23:52.680Z,53.98
2019-03-04T22:26:21.685Z,53.92
2019-03-04T22:28:50.767Z,54.00
2019-03-04T22:31:19.706Z,54.12
2019-03-04T22:33:48.795Z,53.90
2019-03-04T22:36:17.705Z,53.99
2019-03-04T22:38:46.668Z,54.03
2019-03-04T22:41:15.449Z,53.94
2019-03-04T22:43:44.556Z,54.18
2019-03-04T22:46:13.474Z,54.01
2019-03-04T22:48:42.474Z,54.13
2019-03-04T22:51:11.486Z,54.04
2019-03-04T22:53:40.396Z,54.16
2019-03-04T22:56:09.515Z,54.16
2019-03-04T22:58:38.593Z,54.04
2019-03-04T23:01:48.177Z,54.16
2019-03-04T23:04:28.854Z,54.08
2019-03-04T23:07:42.421Z,54.09
2019-03-04T23:10:46.876Z,54.20
2019-03-04T23:13:44.133Z,54.09
2019-03-04T23:16:15.979Z,54.13
2019-03-04T23:18:44.962Z,54.41
2019-03-04T23:21:13.933Z,54.23
2019-03-04T23:23:43.004Z,54.14
2019-03-04T23:26:11.965Z,54.19
2019-03-04T23:28:41.117Z,54.25
2019-03-04T23:31:10.092Z,54.18
2019-03-04T23:33:38.957Z,54.32
2019-03-04T23:36:07.809Z,54.19
2019-03-04T23:38:37.164Z,54.35
2019-03-04T23:41:06.189Z,54.38
2019-03-04T23:43:35.212Z,54.39
2019-03-04T23:46:04.479Z,54.37
2019-03-04T23:48:33.347Z,54.35
2019-03-04T23:51:02.278Z,54.38
2019-03-04T23:53:31.451Z,54.45
2019-03-04T23:56:00.195Z,54.49
2019-03-04T23:58:29.114Z,54.46
